sensor_id;sensor_type;location;lat;lon;timestamp;P1;durP1;ratioP1;P2;durP2;ratioP2
62888;SDS011;48980;41.704;-8.820;2022-07-04T00:00:56;16.40;;;6.10;;
62888;SDS011;48980;41.704;-8.820;2022-07-04T00:02:57;27.85;;;7.80;;
62888;SDS011;48980;41.704;-8.820;2022-07-04T00:04:58;18.07;;;6.50;;
62888;SDS011;48980;41.704;-8.820;2022-07-04T00:06:59;17.83;;;6.43;;
62888;SDS011;48980;41.704;-8.820;2022-07-04T00:09:00;20.37;;;6.73;;
62888;SDS011;48980;41.704;-8.820;2022-07-04T00:11:01;17.50;;;7.18;;
62888;SDS011;48980;41.704;-8.820;2022-07-04T00:13:01;19.80;;;5.90;;
62888;SDS011;48980;41.704;-8.820;2022-07-04T00:15:03;20.98;;;6.80;;
62888;SDS011;48980;41.704;-8.820;2022-07-04T00:17:05;28.38;;;7.22;;
62888;SDS011;48980;41.704;-8.820;2022-07-04T00:19:06;18.92;;;6.38;;
62888;SDS011;48980;41.704;-8.820;2022-07-04T00:21:06;12.80;;;6.77;;
62888;SDS011;48980;41.704;-8.820;2022-07-04T00:23:07;12.43;;;5.93;;
62888;SDS011;48980;41.704;-8.820;2022-07-04T00:25:08;20.43;;;7.40;;
62888;SDS011;48980;41.704;-8.820;2022-07-04T00:27:09;11.73;;;5.45;;
62888;SDS011;48980;41.704;-8.820;2022-07-04T00:29:09;13.10;;;6.93;;
62888;SDS011;48980;41.704;-8.820;2022-07-04T00:31:10;19.27;;;7.13;;
62888;SDS011;48980;41.704;-8.820;2022-07-04T00:33:11;21.00;;;7.10;;
62888;SDS011;48980;41.704;-8.820;2022-07-04T00:35:13;24.55;;;7.32;;
62888;SDS011;48980;41.704;-8.820;2022-07-04T00:37:14;18.93;;;6.07;;
62888;SDS011;48980;41.704;-8.820;2022-07-04T00:39:15;19.77;;;6.03;;
62888;SDS011;48980;41.704;-8.820;2022-07-04T00:41:15;23.53;;;7.43;;
62888;SDS011;48980;41.704;-8.820;2022-07-04T00:43:23;22.75;;;6.60;;
62888;SDS011;48980;41.704;-8.820;2022-07-04T00:45:25;21.60;;;6.82;;
62888;SDS011;48980;41.704;-8.820;2022-07-04T00:47:25;9.97;;;6.33;;
62888;SDS011;48980;41.704;-8.820;2022-07-04T00:49:26;13.80;;;6.83;;
62888;SDS011;48980;41.704;-8.820;2022-07-04T00:51:27;26.27;;;6.67;;
62888;SDS011;48980;41.704;-8.820;2022-07-04T00:53:27;15.43;;;5.80;;
62888;SDS011;48980;41.704;-8.820;2022-07-04T00:55:28;9.73;;;6.05;;
62888;SDS011;48980;41.704;-8.820;2022-07-04T00:57:30;20.35;;;6.88;;
62888;SDS011;48980;41.704;-8.820;2022-07-04T00:59:30;22.20;;;7.67;;
62888;SDS011;48980;41.704;-8.820;2022-07-04T01:01:31;35.60;;;8.60;;
62888;SDS011;48980;41.704;-8.820;2022-07-04T01:05:33;31.65;;;8.30;;
62888;SDS011;48980;41.704;-8.820;2022-07-04T01:07:35;40.67;;;9.17;;
62888;SDS011;48980;41.704;-8.820;2022-07-04T01:09:36;53.25;;;14.98;;
62888;SDS011;48980;41.704;-8.820;2022-07-04T01:11:37;43.15;;;13.55;;
62888;SDS011;48980;41.704;-8.820;2022-07-04T01:13:37;42.67;;;10.87;;
62888;SDS011;48980;41.704;-8.820;2022-07-04T01:15:41;34.40;;;8.45;;
62888;SDS011;48980;41.704;-8.820;2022-07-04T01:17:41;26.00;;;6.37;;
62888;SDS011;48980;41.704;-8.820;2022-07-04T01:19:42;12.80;;;5.23;;
62888;SDS011;48980;41.704;-8.820;2022-07-04T01:21:43;16.43;;;5.70;;
62888;SDS011;48980;41.704;-8.820;2022-07-04T01:23:43;16.80;;;6.10;;
62888;SDS011;48980;41.704;-8.820;2022-07-04T01:25:45;17.75;;;4.72;;
62888;SDS011;48980;41.704;-8.820;2022-07-04T01:27:45;15.20;;;5.80;;
62888;SDS011;48980;41.704;-8.820;2022-07-04T01:29:46;15.93;;;5.03;;
62888;SDS011;48980;41.704;-8.820;2022-07-04T01:31:47;17.02;;;5.72;;
62888;SDS011;48980;41.704;-8.820;2022-07-04T01:33:48;19.33;;;4.27;;
62888;SDS011;48980;41.704;-8.820;2022-07-04T01:35:48;17.40;;;5.20;;
62888;SDS011;48980;41.704;-8.820;2022-07-04T01:37:49;27.33;;;5.60;;
62888;SDS011;48980;41.704;-8.820;2022-07-04T01:39:50;17.65;;;4.53;;
62888;SDS011;48980;41.704;-8.820;2022-07-04T01:41:51;19.27;;;4.07;;
62888;SDS011;48980;41.704;-8.820;2022-07-04T01:43:52;28.70;;;5.73;;
62888;SDS011;48980;41.704;-8.820;2022-07-04T01:45:52;17.53;;;5.27;;
62888;SDS011;48980;41.704;-8.820;2022-07-04T01:47:53;13.63;;;3.80;;
62888;SDS011;48980;41.704;-8.820;2022-07-04T01:49:54;14.77;;;4.63;;
62888;SDS011;48980;41.704;-8.820;2022-07-04T01:51:55;29.20;;;5.70;;
62888;SDS011;48980;41.704;-8.820;2022-07-04T01:53:56;22.53;;;5.17;;
62888;SDS011;48980;41.704;-8.820;2022-07-04T01:55:57;11.73;;;5.57;;
62888;SDS011;48980;41.704;-8.820;2022-07-04T01:57:57;25.53;;;6.77;;
62888;SDS011;48980;41.704;-8.820;2022-07-04T01:59:58;25.75;;;6.78;;
62888;SDS011;48980;41.704;-8.820;2022-07-04T02:02:17;23.08;;;7.13;;
62888;SDS011;48980;41.704;-8.820;2022-07-04T02:04:18;24.60;;;8.50;;
62888;SDS011;48980;41.704;-8.820;2022-07-04T02:06:19;27.80;;;8.00;;
62888;SDS011;48980;41.704;-8.820;2022-07-04T02:08:20;29.83;;;7.47;;
62888;SDS011;48980;41.704;-8.820;2022-07-04T02:10:21;26.13;;;7.65;;
62888;SDS011;48980;41.704;-8.820;2022-07-04T02:12:22;29.50;;;7.05;;
62888;SDS011;48980;41.704;-8.820;2022-07-04T02:14:41;26.05;;;8.55;;
62888;SDS011;48980;41.704;-8.820;2022-07-04T02:16:43;28.30;;;8.13;;
62888;SDS011;48980;41.704;-8.820;2022-07-04T02:18:44;20.10;;;7.85;;
62888;SDS011;48980;41.704;-8.820;2022-07-04T02:20:45;20.10;;;6.87;;
62888;SDS011;48980;41.704;-8.820;2022-07-04T02:22:45;22.90;;;7.50;;
62888;SDS011;48980;41.704;-8.820;2022-07-04T02:24:46;22.07;;;7.50;;
62888;SDS011;48980;41.704;-8.820;2022-07-04T02:26:47;24.00;;;6.22;;
62888;SDS011;48980;41.704;-8.820;2022-07-04T02:30:49;17.83;;;6.63;;
62888;SDS011;48980;41.704;-8.820;2022-07-04T02:32:50;29.83;;;6.53;;
62888;SDS011;48980;41.704;-8.820;2022-07-04T02:34:51;28.20;;;8.15;;
62888;SDS011;48980;41.704;-8.820;2022-07-04T02:36:52;23.83;;;6.00;;
62888;SDS011;48980;41.704;-8.820;2022-07-04T02:38:53;21.02;;;6.82;;
62888;SDS011;48980;41.704;-8.820;2022-07-04T02:40:53;25.10;;;7.73;;
62888;SDS011;48980;41.704;-8.820;2022-07-04T02:42:54;27.03;;;6.93;;
62888;SDS011;48980;41.704;-8.820;2022-07-04T02:44:55;24.77;;;7.17;;
62888;SDS011;48980;41.704;-8.820;2022-07-04T02:46:56;22.65;;;8.27;;
62888;SDS011;48980;41.704;-8.820;2022-07-04T02:48:56;24.75;;;7.50;;
62888;SDS011;48980;41.704;-8.820;2022-07-04T02:50:57;30.80;;;8.60;;
62888;SDS011;48980;41.704;-8.820;2022-07-04T02:52:58;26.57;;;7.30;;
62888;SDS011;48980;41.704;-8.820;2022-07-04T02:54:58;33.93;;;8.20;;
62888;SDS011;48980;41.704;-8.820;2022-07-04T02:56:59;26.43;;;7.77;;
62888;SDS011;48980;41.704;-8.820;2022-07-04T02:59:00;26.00;;;7.67;;
62888;SDS011;48980;41.704;-8.820;2022-07-04T03:03:11;23.60;;;9.30;;
62888;SDS011;48980;41.704;-8.820;2022-07-04T03:05:12;16.48;;;7.15;;
62888;SDS011;48980;41.704;-8.820;2022-07-04T03:07:12;40.70;;;10.67;;
62888;SDS011;48980;41.704;-8.820;2022-07-04T03:09:13;29.80;;;8.60;;
62888;SDS011;48980;41.704;-8.820;2022-07-04T03:11:14;29.13;;;8.67;;
62888;SDS011;48980;41.704;-8.820;2022-07-04T03:13:15;30.03;;;8.93;;
62888;SDS011;48980;41.704;-8.820;2022-07-04T03:15:15;25.57;;;9.30;;
62888;SDS011;48980;41.704;-8.820;2022-07-04T03:17:16;34.20;;;9.37;;
62888;SDS011;48980;41.704;-8.820;2022-07-04T03:19:17;29.60;;;9.73;;
62888;SDS011;48980;41.704;-8.820;2022-07-04T03:21:17;36.07;;;9.30;;
62888;SDS011;48980;41.704;-8.820;2022-07-04T03:23:18;31.83;;;9.20;;
62888;SDS011;48980;41.704;-8.820;2022-07-04T03:25:19;34.55;;;10.63;;
62888;SDS011;48980;41.704;-8.820;2022-07-04T03:27:20;32.22;;;10.10;;
62888;SDS011;48980;41.704;-8.820;2022-07-04T03:29:20;31.53;;;9.67;;
62888;SDS011;48980;41.704;-8.820;2022-07-04T03:31:21;26.33;;;8.50;;
62888;SDS011;48980;41.704;-8.820;2022-07-04T03:33:22;26.70;;;8.68;;
62888;SDS011;48980;41.704;-8.820;2022-07-04T03:35:23;36.50;;;8.77;;
62888;SDS011;48980;41.704;-8.820;2022-07-04T03:37:24;26.60;;;8.38;;
62888;SDS011;48980;41.704;-8.820;2022-07-04T03:39:25;38.63;;;8.03;;
62888;SDS011;48980;41.704;-8.820;2022-07-04T03:41:25;17.08;;;7.25;;
62888;SDS011;48980;41.704;-8.820;2022-07-04T03:43:26;38.10;;;8.33;;
62888;SDS011;48980;41.704;-8.820;2022-07-04T03:45:27;29.50;;;7.70;;
62888;SDS011;48980;41.704;-8.820;2022-07-04T03:47:28;37.73;;;7.37;;
62888;SDS011;48980;41.704;-8.820;2022-07-04T03:49:28;24.43;;;6.53;;
62888;SDS011;48980;41.704;-8.820;2022-07-04T03:51:29;23.00;;;7.27;;
62888;SDS011;48980;41.704;-8.820;2022-07-04T03:53:30;26.70;;;8.10;;
62888;SDS011;48980;41.704;-8.820;2022-07-04T03:55:30;37.80;;;7.27;;
62888;SDS011;48980;41.704;-8.820;2022-07-04T03:57:31;30.95;;;7.38;;
62888;SDS011;48980;41.704;-8.820;2022-07-04T03:59:32;37.27;;;8.37;;
62888;SDS011;48980;41.704;-8.820;2022-07-04T04:01:32;24.80;;;6.83;;
62888;SDS011;48980;41.704;-8.820;2022-07-04T04:03:33;27.35;;;6.72;;
62888;SDS011;48980;41.704;-8.820;2022-07-04T04:05:53;35.78;;;7.10;;
62888;SDS011;48980;41.704;-8.820;2022-07-04T04:07:55;33.58;;;6.57;;
62888;SDS011;48980;41.704;-8.820;2022-07-04T04:09:57;18.73;;;5.28;;
62888;SDS011;48980;41.704;-8.820;2022-07-04T04:11:58;29.03;;;6.70;;
62888;SDS011;48980;41.704;-8.820;2022-07-04T04:13:59;25.90;;;6.63;;
62888;SDS011;48980;41.704;-8.820;2022-07-04T04:15:59;19.80;;;5.77;;
62888;SDS011;48980;41.704;-8.820;2022-07-04T04:18:00;26.27;;;6.43;;
62888;SDS011;48980;41.704;-8.820;2022-07-04T04:20:01;27.73;;;6.47;;
62888;SDS011;48980;41.704;-8.820;2022-07-04T04:22:02;29.77;;;7.40;;
62888;SDS011;48980;41.704;-8.820;2022-07-04T04:24:03;20.20;;;6.43;;
62888;SDS011;48980;41.704;-8.820;2022-07-04T04:26:04;19.25;;;6.20;;
62888;SDS011;48980;41.704;-8.820;2022-07-04T04:28:04;19.57;;;6.90;;
62888;SDS011;48980;41.704;-8.820;2022-07-04T04:30:05;19.30;;;6.37;;
62888;SDS011;48980;41.704;-8.820;2022-07-04T04:32:07;17.33;;;7.28;;
62888;SDS011;48980;41.704;-8.820;2022-07-04T04:34:08;24.13;;;7.72;;
62888;SDS011;48980;41.704;-8.820;2022-07-04T04:36:08;26.90;;;8.53;;
62888;SDS011;48980;41.704;-8.820;2022-07-04T04:38:09;19.27;;;7.40;;
62888;SDS011;48980;41.704;-8.820;2022-07-04T04:40:10;26.47;;;7.50;;
62888;SDS011;48980;41.704;-8.820;2022-07-04T04:42:11;13.52;;;7.05;;
62888;SDS011;48980;41.704;-8.820;2022-07-04T04:44:12;21.10;;;6.87;;
62888;SDS011;48980;41.704;-8.820;2022-07-04T04:46:13;12.40;;;5.93;;
62888;SDS011;48980;41.704;-8.820;2022-07-04T04:48:14;14.27;;;6.47;;
62888;SDS011;48980;41.704;-8.820;2022-07-04T04:50:14;20.30;;;6.83;;
62888;SDS011;48980;41.704;-8.820;2022-07-04T04:52:15;16.93;;;5.77;;
62888;SDS011;48980;41.704;-8.820;2022-07-04T04:54:16;24.40;;;6.25;;
62888;SDS011;48980;41.704;-8.820;2022-07-04T04:56:17;18.10;;;9.03;;
62888;SDS011;48980;41.704;-8.820;2022-07-04T04:58:18;21.47;;;7.07;;
62888;SDS011;48980;41.704;-8.820;2022-07-04T05:00:22;12.02;;;6.32;;
62888;SDS011;48980;41.704;-8.820;2022-07-04T05:02:23;16.27;;;6.05;;
62888;SDS011;48980;41.704;-8.820;2022-07-04T05:04:23;11.27;;;5.30;;
62888;SDS011;48980;41.704;-8.820;2022-07-04T05:06:24;13.40;;;6.45;;
62888;SDS011;48980;41.704;-8.820;2022-07-04T05:08:25;14.03;;;6.20;;
62888;SDS011;48980;41.704;-8.820;2022-07-04T05:10:26;17.13;;;6.45;;
62888;SDS011;48980;41.704;-8.820;2022-07-04T05:12:26;15.73;;;6.10;;
62888;SDS011;48980;41.704;-8.820;2022-07-04T05:14:27;13.80;;;5.93;;
62888;SDS011;48980;41.704;-8.820;2022-07-04T05:16:28;11.07;;;5.35;;
62888;SDS011;48980;41.704;-8.820;2022-07-04T05:18:29;18.80;;;6.10;;
62888;SDS011;48980;41.704;-8.820;2022-07-04T05:20:30;12.70;;;5.60;;
62888;SDS011;48980;41.704;-8.820;2022-07-04T05:22:30;11.83;;;6.17;;
62888;SDS011;48980;41.704;-8.820;2022-07-04T05:24:31;21.23;;;6.83;;
62888;SDS011;48980;41.704;-8.820;2022-07-04T05:26:32;15.63;;;6.00;;
62888;SDS011;48980;41.704;-8.820;2022-07-04T05:28:33;21.00;;;5.95;;
62888;SDS011;48980;41.704;-8.820;2022-07-04T05:30:34;18.77;;;5.60;;
62888;SDS011;48980;41.704;-8.820;2022-07-04T05:32:36;17.13;;;6.60;;
62888;SDS011;48980;41.704;-8.820;2022-07-04T05:34:40;24.08;;;7.05;;
62888;SDS011;48980;41.704;-8.820;2022-07-04T05:36:40;33.20;;;7.90;;
62888;SDS011;48980;41.704;-8.820;2022-07-04T05:38:41;25.23;;;6.53;;
62888;SDS011;48980;41.704;-8.820;2022-07-04T05:40:42;25.27;;;6.97;;
62888;SDS011;48980;41.704;-8.820;2022-07-04T05:42:42;20.10;;;6.43;;
62888;SDS011;48980;41.704;-8.820;2022-07-04T05:44:43;25.17;;;6.07;;
62888;SDS011;48980;41.704;-8.820;2022-07-04T05:46:44;25.10;;;6.10;;
62888;SDS011;48980;41.704;-8.820;2022-07-04T05:48:44;15.03;;;5.77;;
62888;SDS011;48980;41.704;-8.820;2022-07-04T05:50:45;18.00;;;5.65;;
62888;SDS011;48980;41.704;-8.820;2022-07-04T05:52:46;12.07;;;5.50;;
62888;SDS011;48980;41.704;-8.820;2022-07-04T05:54:47;11.25;;;4.55;;
62888;SDS011;48980;41.704;-8.820;2022-07-04T05:56:48;9.57;;;5.18;;
62888;SDS011;48980;41.704;-8.820;2022-07-04T05:58:49;13.52;;;4.22;;
62888;SDS011;48980;41.704;-8.820;2022-07-04T06:00:50;17.03;;;6.70;;
62888;SDS011;48980;41.704;-8.820;2022-07-04T06:02:50;23.77;;;6.47;;
62888;SDS011;48980;41.704;-8.820;2022-07-04T06:04:51;32.10;;;7.80;;
62888;SDS011;48980;41.704;-8.820;2022-07-04T06:06:52;28.27;;;8.30;;
62888;SDS011;48980;41.704;-8.820;2022-07-04T06:08:52;23.23;;;8.93;;
62888;SDS011;48980;41.704;-8.820;2022-07-04T06:10:53;23.63;;;10.07;;
62888;SDS011;48980;41.704;-8.820;2022-07-04T06:12:54;32.40;;;11.17;;
62888;SDS011;48980;41.704;-8.820;2022-07-04T06:14:54;22.33;;;9.97;;
62888;SDS011;48980;41.704;-8.820;2022-07-04T06:16:55;14.87;;;9.47;;
62888;SDS011;48980;41.704;-8.820;2022-07-04T06:18:56;16.93;;;9.33;;
62888;SDS011;48980;41.704;-8.820;2022-07-04T06:20:56;12.83;;;8.83;;
62888;SDS011;48980;41.704;-8.820;2022-07-04T06:22:57;11.47;;;8.80;;
62888;SDS011;48980;41.704;-8.820;2022-07-04T06:24:58;16.03;;;8.57;;
62888;SDS011;48980;41.704;-8.820;2022-07-04T06:26:59;21.20;;;8.67;;
62888;SDS011;48980;41.704;-8.820;2022-07-04T06:28:59;14.33;;;7.77;;
62888;SDS011;48980;41.704;-8.820;2022-07-04T06:31:00;20.97;;;7.57;;
62888;SDS011;48980;41.704;-8.820;2022-07-04T06:33:01;11.40;;;7.53;;
62888;SDS011;48980;41.704;-8.820;2022-07-04T06:35:01;16.70;;;8.40;;
62888;SDS011;48980;41.704;-8.820;2022-07-04T06:37:21;14.50;;;8.95;;
62888;SDS011;48980;41.704;-8.820;2022-07-04T06:39:22;12.80;;;8.97;;
62888;SDS011;48980;41.704;-8.820;2022-07-04T06:41:22;15.93;;;9.40;;
62888;SDS011;48980;41.704;-8.820;2022-07-04T06:43:23;17.13;;;9.90;;
62888;SDS011;48980;41.704;-8.820;2022-07-04T06:45:25;13.82;;;8.70;;
62888;SDS011;48980;41.704;-8.820;2022-07-04T06:47:26;13.27;;;9.85;;
62888;SDS011;48980;41.704;-8.820;2022-07-04T06:49:26;13.13;;;9.90;;
62888;SDS011;48980;41.704;-8.820;2022-07-04T06:51:27;11.97;;;9.53;;
62888;SDS011;48980;41.704;-8.820;2022-07-04T06:53:28;16.50;;;9.47;;
62888;SDS011;48980;41.704;-8.820;2022-07-04T06:55:29;17.85;;;9.35;;
62888;SDS011;48980;41.704;-8.820;2022-07-04T06:57:35;13.63;;;10.10;;
62888;SDS011;48980;41.704;-8.820;2022-07-04T06:59:36;14.23;;;10.98;;
62888;SDS011;48980;41.704;-8.820;2022-07-04T07:01:37;10.68;;;8.93;;
62888;SDS011;48980;41.704;-8.820;2022-07-04T07:03:38;11.80;;;9.63;;
62888;SDS011;48980;41.704;-8.820;2022-07-04T07:05:38;9.37;;;8.17;;
62888;SDS011;48980;41.704;-8.820;2022-07-04T07:07:39;13.73;;;8.77;;
62888;SDS011;48980;41.704;-8.820;2022-07-04T07:09:40;16.60;;;8.67;;
62888;SDS011;48980;41.704;-8.820;2022-07-04T07:11:40;10.77;;;7.77;;
62888;SDS011;48980;41.704;-8.820;2022-07-04T07:13:42;9.63;;;7.50;;
62888;SDS011;48980;41.704;-8.820;2022-07-04T07:15:44;9.32;;;6.25;;
62888;SDS011;48980;41.704;-8.820;2022-07-04T07:17:45;7.35;;;6.22;;
62888;SDS011;48980;41.704;-8.820;2022-07-04T07:19:46;13.20;;;7.63;;
62888;SDS011;48980;41.704;-8.820;2022-07-04T07:21:47;6.95;;;6.15;;
62888;SDS011;48980;41.704;-8.820;2022-07-04T07:23:48;7.13;;;6.43;;
62888;SDS011;48980;41.704;-8.820;2022-07-04T07:25:49;6.05;;;5.47;;
62888;SDS011;48980;41.704;-8.820;2022-07-04T07:27:50;7.43;;;6.03;;
62888;SDS011;48980;41.704;-8.820;2022-07-04T07:29:51;7.80;;;6.53;;
62888;SDS011;48980;41.704;-8.820;2022-07-04T07:31:51;8.80;;;7.00;;
62888;SDS011;48980;41.704;-8.820;2022-07-04T07:33:52;9.67;;;7.37;;
62888;SDS011;48980;41.704;-8.820;2022-07-04T07:35:53;13.53;;;7.30;;
62888;SDS011;48980;41.704;-8.820;2022-07-04T07:37:54;15.53;;;8.07;;
62888;SDS011;48980;41.704;-8.820;2022-07-04T07:39:54;12.67;;;8.70;;
62888;SDS011;48980;41.704;-8.820;2022-07-04T07:41:55;14.93;;;8.50;;
62888;SDS011;48980;41.704;-8.820;2022-07-04T07:43:56;13.07;;;9.60;;
62888;SDS011;48980;41.704;-8.820;2022-07-04T07:45:56;15.70;;;10.53;;
62888;SDS011;48980;41.704;-8.820;2022-07-04T07:47:57;13.85;;;9.68;;
62888;SDS011;48980;41.704;-8.820;2022-07-04T07:49:58;9.10;;;7.77;;
62888;SDS011;48980;41.704;-8.820;2022-07-04T07:51:59;9.57;;;8.25;;
62888;SDS011;48980;41.704;-8.820;2022-07-04T07:53:59;11.90;;;7.17;;
62888;SDS011;48980;41.704;-8.820;2022-07-04T07:56:01;7.95;;;7.03;;
62888;SDS011;48980;41.704;-8.820;2022-07-04T07:58:01;8.70;;;6.55;;
62888;SDS011;48980;41.704;-8.820;2022-07-04T08:00:03;6.10;;;5.68;;
62888;SDS011;48980;41.704;-8.820;2022-07-04T08:02:12;6.65;;;6.05;;
62888;SDS011;48980;41.704;-8.820;2022-07-04T08:04:13;6.40;;;5.87;;
62888;SDS011;48980;41.704;-8.820;2022-07-04T08:06:33;7.55;;;6.85;;
62888;SDS011;48980;41.704;-8.820;2022-07-04T08:08:34;9.45;;;6.85;;
62888;SDS011;48980;41.704;-8.820;2022-07-04T08:10:34;7.37;;;6.20;;
62888;SDS011;48980;41.704;-8.820;2022-07-04T08:12:35;7.93;;;5.87;;
62888;SDS011;48980;41.704;-8.820;2022-07-04T08:14:36;5.20;;;4.80;;
62888;SDS011;48980;41.704;-8.820;2022-07-04T08:16:37;5.33;;;4.87;;
62888;SDS011;48980;41.704;-8.820;2022-07-04T08:18:37;6.57;;;6.00;;
62888;SDS011;48980;41.704;-8.820;2022-07-04T08:20:38;6.90;;;6.40;;
62888;SDS011;48980;41.704;-8.820;2022-07-04T08:22:39;11.25;;;7.80;;
62888;SDS011;48980;41.704;-8.820;2022-07-04T08:24:40;8.23;;;6.90;;
62888;SDS011;48980;41.704;-8.820;2022-07-04T08:26:41;13.13;;;7.03;;
62888;SDS011;48980;41.704;-8.820;2022-07-04T08:28:42;9.98;;;8.45;;
62888;SDS011;48980;41.704;-8.820;2022-07-04T08:30:43;10.73;;;7.80;;
62888;SDS011;48980;41.704;-8.820;2022-07-04T08:32:44;8.52;;;7.25;;
62888;SDS011;48980;41.704;-8.820;2022-07-04T08:34:45;11.40;;;7.97;;
62888;SDS011;48980;41.704;-8.820;2022-07-04T08:36:47;7.35;;;6.60;;
62888;SDS011;48980;41.704;-8.820;2022-07-04T08:38:47;7.77;;;7.07;;
62888;SDS011;48980;41.704;-8.820;2022-07-04T08:40:48;9.37;;;6.30;;
62888;SDS011;48980;41.704;-8.820;2022-07-04T08:42:51;12.30;;;6.68;;
62888;SDS011;48980;41.704;-8.820;2022-07-04T08:44:53;6.63;;;6.03;;
62888;SDS011;48980;41.704;-8.820;2022-07-04T08:46:55;8.40;;;7.00;;
62888;SDS011;48980;41.704;-8.820;2022-07-04T08:48:58;8.98;;;7.22;;
62888;SDS011;48980;41.704;-8.820;2022-07-04T08:51:08;9.40;;;6.57;;
62888;SDS011;48980;41.704;-8.820;2022-07-04T08:53:16;9.93;;;5.85;;
62888;SDS011;48980;41.704;-8.820;2022-07-04T08:55:19;11.82;;;6.95;;
62888;SDS011;48980;41.704;-8.820;2022-07-04T08:57:38;11.05;;;8.18;;
62888;SDS011;48980;41.704;-8.820;2022-07-04T08:59:58;13.32;;;6.32;;
62888;SDS011;48980;41.704;-8.820;2022-07-04T09:01:59;12.32;;;7.18;;
62888;SDS011;48980;41.704;-8.820;2022-07-04T09:04:01;11.23;;;7.38;;
62888;SDS011;48980;41.704;-8.820;2022-07-04T09:06:02;9.85;;;7.00;;
62888;SDS011;48980;41.704;-8.820;2022-07-04T09:08:04;10.70;;;6.43;;
62888;SDS011;48980;41.704;-8.820;2022-07-04T09:10:05;11.90;;;7.13;;
62888;SDS011;48980;41.704;-8.820;2022-07-04T09:12:08;11.23;;;7.55;;
62888;SDS011;48980;41.704;-8.820;2022-07-04T09:14:09;8.65;;;6.18;;
62888;SDS011;48980;41.704;-8.820;2022-07-04T09:16:10;5.10;;;4.80;;
62888;SDS011;48980;41.704;-8.820;2022-07-04T09:20:41;5.15;;;4.75;;
62888;SDS011;48980;41.704;-8.820;2022-07-04T09:22:42;4.78;;;4.40;;
62888;SDS011;48980;41.704;-8.820;2022-07-04T09:24:44;5.10;;;4.82;;
62888;SDS011;48980;41.704;-8.820;2022-07-04T09:26:46;4.75;;;4.53;;
62888;SDS011;48980;41.704;-8.820;2022-07-04T09:28:50;4.70;;;4.40;;
62888;SDS011;48980;41.704;-8.820;2022-07-04T09:30:53;5.50;;;5.20;;
62888;SDS011;48980;41.704;-8.820;2022-07-04T09:32:54;6.60;;;6.03;;
62888;SDS011;48980;41.704;-8.820;2022-07-04T09:35:06;6.50;;;6.00;;
62888;SDS011;48980;41.704;-8.820;2022-07-04T09:37:08;6.28;;;5.78;;
62888;SDS011;48980;41.704;-8.820;2022-07-04T09:39:10;4.93;;;4.63;;
62888;SDS011;48980;41.704;-8.820;2022-07-04T09:41:15;9.88;;;5.45;;
62888;SDS011;48980;41.704;-8.820;2022-07-04T09:43:25;9.50;;;5.22;;
62888;SDS011;48980;41.704;-8.820;2022-07-04T09:45:26;5.32;;;5.03;;
62888;SDS011;48980;41.704;-8.820;2022-07-04T09:47:28;6.53;;;5.95;;
62888;SDS011;48980;41.704;-8.820;2022-07-04T09:49:30;6.13;;;5.53;;
62888;SDS011;48980;41.704;-8.820;2022-07-04T09:53:41;6.57;;;5.97;;
62888;SDS011;48980;41.704;-8.820;2022-07-04T09:57:46;5.90;;;5.50;;
62888;SDS011;48980;41.704;-8.820;2022-07-04T09:59:46;7.15;;;5.75;;
62888;SDS011;48980;41.704;-8.820;2022-07-04T10:01:47;6.70;;;6.05;;
62888;SDS011;48980;41.704;-8.820;2022-07-04T10:03:51;5.97;;;5.57;;
62888;SDS011;48980;41.704;-8.820;2022-07-04T10:06:10;5.35;;;4.90;;
62888;SDS011;48980;41.704;-8.820;2022-07-04T10:08:12;6.88;;;6.05;;
62888;SDS011;48980;41.704;-8.820;2022-07-04T10:12:34;7.68;;;5.10;;
62888;SDS011;48980;41.704;-8.820;2022-07-04T10:14:34;11.95;;;4.82;;
62888;SDS011;48980;41.704;-8.820;2022-07-04T10:16:36;6.90;;;5.73;;
62888;SDS011;48980;41.704;-8.820;2022-07-04T10:18:39;4.32;;;4.05;;
62888;SDS011;48980;41.704;-8.820;2022-07-04T10:20:41;2.40;;;2.38;;
62888;SDS011;48980;41.704;-8.820;2022-07-04T10:22:42;4.78;;;4.57;;
62888;SDS011;48980;41.704;-8.820;2022-07-04T10:26:44;4.63;;;4.43;;
62888;SDS011;48980;41.704;-8.820;2022-07-04T10:28:45;4.53;;;4.32;;
62888;SDS011;48980;41.704;-8.820;2022-07-04T10:30:48;4.57;;;4.38;;
62888;SDS011;48980;41.704;-8.820;2022-07-04T10:32:52;4.63;;;4.40;;
62888;SDS011;48980;41.704;-8.820;2022-07-04T10:34:55;4.50;;;4.30;;
62888;SDS011;48980;41.704;-8.820;2022-07-04T10:36:55;3.80;;;3.60;;
62888;SDS011;48980;41.704;-8.820;2022-07-04T10:39:00;3.90;;;3.80;;
62888;SDS011;48980;41.704;-8.820;2022-07-04T10:41:07;2.70;;;2.60;;
62888;SDS011;48980;41.704;-8.820;2022-07-04T10:45:37;4.18;;;3.97;;
62888;SDS011;48980;41.704;-8.820;2022-07-04T10:47:38;3.92;;;3.72;;
62888;SDS011;48980;41.704;-8.820;2022-07-04T10:49:39;4.83;;;4.53;;
62888;SDS011;48980;41.704;-8.820;2022-07-04T10:51:49;5.03;;;4.68;;
62888;SDS011;48980;41.704;-8.820;2022-07-04T10:54:00;4.20;;;3.97;;
62888;SDS011;48980;41.704;-8.820;2022-07-04T11:00:39;4.68;;;4.38;;
62888;SDS011;48980;41.704;-8.820;2022-07-04T11:03:22;4.68;;;4.47;;
62888;SDS011;48980;41.704;-8.820;2022-07-04T11:05:31;4.72;;;4.55;;
62888;SDS011;48980;41.704;-8.820;2022-07-04T11:09:36;5.43;;;4.97;;
62888;SDS011;48980;41.704;-8.820;2022-07-04T11:16:52;2.80;;;2.70;;
62888;SDS011;48980;41.704;-8.820;2022-07-04T11:18:56;3.88;;;3.63;;
62888;SDS011;48980;41.704;-8.820;2022-07-04T11:20:57;3.97;;;3.80;;
62888;SDS011;48980;41.704;-8.820;2022-07-04T11:23:07;3.63;;;3.45;;
62888;SDS011;48980;41.704;-8.820;2022-07-04T11:25:12;4.50;;;4.20;;
62888;SDS011;48980;41.704;-8.820;2022-07-04T11:27:13;3.97;;;3.78;;
62888;SDS011;48980;41.704;-8.820;2022-07-04T11:29:14;4.22;;;4.03;;
62888;SDS011;48980;41.704;-8.820;2022-07-04T11:31:15;4.20;;;3.92;;
62888;SDS011;48980;41.704;-8.820;2022-07-04T11:33:17;3.28;;;3.17;;
62888;SDS011;48980;41.704;-8.820;2022-07-04T11:35:22;3.25;;;3.15;;
62888;SDS011;48980;41.704;-8.820;2022-07-04T11:37:23;4.53;;;4.43;;
62888;SDS011;48980;41.704;-8.820;2022-07-04T11:39:24;4.95;;;4.53;;
62888;SDS011;48980;41.704;-8.820;2022-07-04T11:41:26;4.57;;;4.38;;
62888;SDS011;48980;41.704;-8.820;2022-07-04T11:43:49;5.38;;;4.95;;
62888;SDS011;48980;41.704;-8.820;2022-07-04T11:46:11;5.03;;;4.70;;
62888;SDS011;48980;41.704;-8.820;2022-07-04T11:48:20;4.22;;;4.03;;
62888;SDS011;48980;41.704;-8.820;2022-07-04T11:50:27;4.43;;;4.22;;
62888;SDS011;48980;41.704;-8.820;2022-07-04T11:52:29;4.37;;;4.13;;
62888;SDS011;48980;41.704;-8.820;2022-07-04T11:54:34;5.00;;;4.80;;
62888;SDS011;48980;41.704;-8.820;2022-07-04T11:56:35;8.18;;;4.10;;
62888;SDS011;48980;41.704;-8.820;2022-07-04T11:58:42;5.20;;;4.80;;
62888;SDS011;48980;41.704;-8.820;2022-07-04T12:00:43;4.28;;;4.07;;
62888;SDS011;48980;41.704;-8.820;2022-07-04T12:02:45;3.97;;;3.77;;
62888;SDS011;48980;41.704;-8.820;2022-07-04T12:04:47;4.20;;;4.10;;
62888;SDS011;48980;41.704;-8.820;2022-07-04T12:06:48;5.00;;;4.60;;
62888;SDS011;48980;41.704;-8.820;2022-07-04T12:08:49;5.25;;;4.63;;
62888;SDS011;48980;41.704;-8.820;2022-07-04T12:10:49;5.37;;;5.03;;
62888;SDS011;48980;41.704;-8.820;2022-07-04T12:15:18;3.65;;;3.47;;
62888;SDS011;48980;41.704;-8.820;2022-07-04T12:17:20;3.80;;;3.50;;
62888;SDS011;48980;41.704;-8.820;2022-07-04T12:19:21;3.73;;;3.53;;
62888;SDS011;48980;41.704;-8.820;2022-07-04T12:21:21;4.20;;;4.00;;
62888;SDS011;48980;41.704;-8.820;2022-07-04T12:23:23;3.53;;;3.42;;
62888;SDS011;48980;41.704;-8.820;2022-07-04T12:25:29;3.17;;;3.08;;
62888;SDS011;48980;41.704;-8.820;2022-07-04T12:27:34;3.13;;;3.00;;
62888;SDS011;48980;41.704;-8.820;2022-07-04T12:29:35;3.28;;;3.17;;
62888;SDS011;48980;41.704;-8.820;2022-07-04T12:31:40;3.00;;;2.90;;